Time;durP1;ratioP1;P1;durP2;ratioP2;P2;SDS_P1;SDS_P2;PMS_P1;PMS_P2;Temp;Humidity;BMP_temperature;BMP_pressure;BME280_temperature;BME280_humidity;BME280_pressure;Samples;Min_cycle;Max_cycle;Signal;HPM_P1;HPM_P2
2022/01/16 00:06:02;;;;;;;32.13;6.32;;;;;;;5.72;100.00;100444.63;5012034;28;20402;-52
2022/01/16 00:09:06;;;;;;;4.93;2.83;;;;;;;5.69;100.00;100450.25;4994475;28;20052;-52
2022/01/16 00:12:11;;;;;;;8.27;3.28;;;;;;;5.65;100.00;100430.97;4995292;28;20053;-52
2022/01/16 00:15:20;;;;;;;37.78;6.18;;;;;;;5.58;100.00;100425.59;4994670;28;20510;-52
2022/01/16 00:18:27;;;;;;;2.10;2.00;;;;;;;5.53;100.00;100428.88;4994895;28;20371;-52
2022/01/16 00:21:35;;;;;;;9.80;2.70;;;;;;;5.55;100.00;100398.81;4994807;28;20375;-52
2022/01/16 00:24:39;;;;;;;18.90;4.57;;;;;;;5.53;100.00;100409.53;4995096;28;20050;-52
2022/01/16 00:27:46;;;;;;;20.40;3.90;;;;;;;5.55;100.00;100429.22;5011013;28;20111;-52
2022/01/16 00:30:51;;;;;;;4.13;3.58;;;;;;;5.57;100.00;100415.75;5014458;28;20410;-52
2022/01/16 00:33:54;;;;;;;21.13;4.60;;;;;;;5.64;100.00;100425.88;5014782;28;20060;-52
2022/01/16 00:36:57;;;;;;;19.60;2.83;;;;;;;5.65;100.00;100411.63;5013992;28;20045;-52
2022/01/16 00:40:01;;;;;;;12.70;2.80;;;;;;;5.67;100.00;100427.78;5013941;28;20072;-52
2022/01/16 00:43:04;;;;;;;4.95;2.72;;;;;;;5.60;100.00;100425.19;5014130;28;20072;-52
2022/01/16 00:46:08;;;;;;;8.88;3.10;;;;;;;5.53;100.00;100415.06;5026261;28;20048;-52
2022/01/16 00:49:11;;;;;;;7.07;1.77;;;;;;;5.49;100.00;100419.09;5033496;28;20053;-52
2022/01/16 00:52:15;;;;;;;2.67;1.88;;;;;;;5.41;100.00;100429.53;5034100;28;20056;-52
2022/01/16 00:55:18;;;;;;;6.35;2.85;;;;;;;5.33;100.00;100428.09;5023004;28;20411;-52
2022/01/16 00:58:21;;;;;;;3.35;2.55;;;;;;;5.37;100.00;100428.84;4994549;28;20502;-52
2022/01/16 01:01:25;;;;;;;8.82;2.10;;;;;;;5.32;100.00;100429.31;4994172;28;20387;-52
2022/01/16 01:04:28;;;;;;;6.22;2.28;;;;;;;5.14;100.00;100426.13;4994216;28;20057;-52
2022/01/16 01:07:31;;;;;;;7.03;1.40;;;;;;;5.19;100.00;100407.09;4993653;28;20053;-52
2022/01/16 01:10:38;;;;;;;7.63;1.38;;;;;;;5.26;100.00;100417.22;4994098;28;20049;-52
2022/01/16 01:17:07;;;;;;;9.68;2.90;;;;;;;5.37;100.00;100423.31;5033135;28;20072;-52
2022/01/16 01:20:14;;;;;;;5.15;2.75;;;;;;;5.40;100.00;100394.81;5032929;28;20052;-53
2022/01/16 01:23:18;;;;;;;9.93;2.15;;;;;;;5.47;100.00;100402.97;5022689;28;20107;-52
2022/01/16 01:26:26;;;;;;;8.93;1.08;;;;;;;5.46;100.00;100404.16;5013800;28;20477;-52
2022/01/16 01:29:30;;;;;;;3.10;1.05;;;;;;;5.43;100.00;100409.75;5033328;28;20045;-52
2022/01/16 01:32:36;;;;;;;11.10;2.80;;;;;;;5.42;100.00;100397.94;5032660;28;20068;-52
2022/01/16 01:35:40;;;;;;;8.68;2.63;;;;;;;5.40;100.00;100414.16;5020861;28;20057;-52
2022/01/16 01:38:44;;;;;;;1.48;1.15;;;;;;;5.33;100.00;100425.34;4998326;28;20497;-52
2022/01/16 01:41:50;;;;;;;7.60;2.70;;;;;;;5.28;100.00;100420.34;5006438;28;20053;-53
2022/01/16 01:51:44;;;;;;;1.48;1.00;;;;;;;5.36;100.00;100363.75;5013216;28;20048;-52
2022/01/16 01:54:48;;;;;;;6.45;2.03;;;;;;;5.37;100.00;100285.22;5012589;28;20056;-52
2022/01/16 01:57:52;;;;;;;6.32;2.10;;;;;;;5.40;100.00;100336.81;5012812;28;20053;-52
2022/01/16 02:00:56;;;;;;;8.27;3.58;;;;;;;5.42;100.00;100331.66;5011855;28;20041;-52
2022/01/16 02:03:59;;;;;;;2.17;1.05;;;;;;;5.41;100.00;100324.59;5012760;28;20068;-53
2022/01/16 02:07:03;;;;;;;9.35;2.83;;;;;;;5.40;100.00;100392.06;5012644;28;20056;-52
2022/01/16 02:10:06;;;;;;;3.83;1.85;;;;;;;5.41;100.00;100368.00;5012415;28;20065;-52
2022/01/16 02:13:20;;;;;;;5.15;2.25;;;;;;;5.47;100.00;100393.88;5012682;28;20053;-52
2022/01/16 02:30:38;;;;;;;8.40;2.17;;;;;;;5.75;100.00;100396.81;5032409;28;20060;-53
2022/01/16 02:34:31;;;;;;;10.20;1.73;;;;;;;5.75;100.00;100396.03;5032694;28;20048;-53
2022/01/16 02:37:00;;;;;;;;;;;;;;;5.81;100.00;100406.13;4995451;28;20057;-52
2022/01/16 02:40:13;;;;;;;7.25;2.47;;;;;;;5.75;100.00;100404.31;4992609;28;20267;-53
2022/01/16 02:43:18;;;;;;;2.85;1.48;;;;;;;5.63;100.00;100407.75;4992765;28;20053;-53
2022/01/16 02:49:28;;;;;;;2.97;2.58;;;;;;;5.42;100.00;100420.03;5006447;28;20590;-53
2022/01/16 02:52:32;;;;;;;6.53;1.83;;;;;;;5.30;100.00;100424.22;5012595;28;20048;-53
2022/01/16 02:55:40;;;;;;;2.28;1.35;;;;;;;5.28;100.00;100417.56;5011819;28;20053;-53
2022/01/16 02:58:44;;;;;;;9.48;1.13;;;;;;;5.27;100.00;100407.72;5011978;28;20390;-52
2022/01/16 03:01:49;;;;;;;2.80;1.63;;;;;;;5.25;100.00;100394.34;5012269;28;20594;-52
2022/01/16 03:04:53;;;;;;;0.77;0.65;;;;;;;5.28;100.00;100393.47;5012556;28;20068;-53
2022/01/16 03:07:56;;;;;;;0.45;0.45;;;;;;;5.30;100.00;100398.59;5011868;28;20053;-53
2022/01/16 03:14:05;;;;;;;1.13;1.02;;;;;;;5.36;100.00;100394.13;5014120;28;20057;-52
2022/01/16 03:17:10;;;;;;;5.40;0.85;;;;;;;5.43;100.00;100399.50;5015760;28;20052;-53
2022/01/16 03:23:36;;;;;;;1.98;0.65;;;;;;;5.46;100.00;100378.53;5008264;28;20406;-53
2022/01/16 03:26:40;;;;;;;12.43;1.10;;;;;;;5.48;100.00;100367.84;5006750;28;20399;-53
2022/01/16 03:29:46;;;;;;;8.77;1.63;;;;;;;5.41;100.00;100356.94;5014878;28;20053;-53
2022/01/16 03:32:49;;;;;;;2.08;0.63;;;;;;;5.42;100.00;100359.25;5015448;28;20048;-53
2022/01/16 03:35:53;;;;;;;0.70;0.60;;;;;;;5.44;100.00;100359.59;5015587;28;20053;-53
2022/01/16 03:38:56;;;;;;;15.65;1.63;;;;;;;5.52;100.00;100369.31;5015124;28;20060;-53
2022/01/16 03:42:01;;;;;;;0.60;0.60;;;;;;;5.42;100.00;100359.25;5015320;28;20395;-53
2022/01/16 03:45:05;;;;;;;1.48;1.33;;;;;;;5.36;100.00;100360.97;5014967;28;20057;-53
2022/01/16 03:48:09;;;;;;;2.03;1.08;;;;;;;5.22;100.00;100356.53;5015411;28;20049;-53
2022/01/16 03:51:12;;;;;;;3.58;1.25;;;;;;;5.15;100.00;100362.22;5015162;28;20498;-52
2022/01/16 03:54:18;;;;;;;2.38;1.77;;;;;;;5.13;100.00;100370.13;5014983;28;20069;-52
2022/01/16 03:57:21;;;;;;;2.42;0.80;;;;;;;5.15;100.00;100365.00;5015164;28;20053;-52
2022/01/16 04:00:25;;;;;;;2.25;1.25;;;;;;;5.23;100.00;100358.09;5015186;28;20053;-53
2022/01/16 04:03:28;;;;;;;1.08;0.57;;;;;;;5.34;100.00;100352.34;5014684;28;20053;-53
2022/01/16 04:06:32;;;;;;;1.08;0.75;;;;;;;5.35;100.00;100365.72;5014597;28;20060;-53
2022/01/16 04:09:35;;;;;;;1.33;1.23;;;;;;;5.36;100.00;100355.47;5014736;28;20049;-52
2022/01/16 04:12:39;;;;;;;1.90;0.50;;;;;;;5.39;100.00;100357.38;5014620;28;20049;-52
2022/01/16 04:15:43;;;;;;;4.22;0.95;;;;;;;5.40;100.00;100356.16;5014546;28;20064;-53
2022/01/16 04:18:51;;;;;;;14.90;1.48;;;;;;;5.42;100.00;100356.50;5014923;28;20056;-53
2022/01/16 04:21:54;;;;;;;7.22;1.20;;;;;;;5.50;100.00;100355.13;5014541;28;20049;-53
2022/01/16 04:24:57;;;;;;;9.48;1.27;;;;;;;5.52;100.00;100374.84;5013455;28;20049;-53
2022/01/16 04:28:02;;;;;;;9.77;1.73;;;;;;;5.55;100.00;100376.72;5033661;28;20048;-53
2022/01/16 04:31:05;;;;;;;1.77;1.17;;;;;;;5.64;100.00;100381.66;5034118;28;20053;-53
2022/01/16 04:34:09;;;;;;;0.90;0.57;;;;;;;5.61;100.00;100394.34;5033590;28;20129;-53
2022/01/16 04:37:12;;;;;;;2.50;1.35;;;;;;;5.65;100.00;100389.50;4994601;28;20073;-53
2022/01/16 04:40:16;;;;;;;3.10;1.15;;;;;;;5.66;100.00;100387.53;4994931;28;20054;-53
2022/01/16 04:46:46;;;;;;;2.92;1.50;;;;;;;5.78;100.00;100392.41;5011393;28;20068;-53
2022/01/16 04:49:49;;;;;;;12.55;2.25;;;;;;;5.73;100.00;100393.69;5014251;28;20053;-53
2022/01/16 04:52:52;;;;;;;5.97;1.60;;;;;;;5.73;100.00;100385.41;5014318;28;20049;-53
2022/01/16 04:55:55;;;;;;;4.55;1.35;;;;;;;5.63;100.00;100380.88;5013725;28;20424;-53
2022/01/16 04:58:59;;;;;;;2.15;0.85;;;;;;;5.73;100.00;100382.63;5013274;28;20064;-53
2022/01/16 05:02:03;;;;;;;3.92;1.38;;;;;;;5.85;100.00;100386.72;5013845;28;20053;-52
2022/01/16 05:05:08;;;;;;;2.03;1.17;;;;;;;5.82;100.00;100377.31;5013524;28;20564;-52
2022/01/16 05:08:11;;;;;;;1.45;1.35;;;;;;;5.75;100.00;100377.47;5013150;28;20494;-53
2022/01/16 05:11:20;;;;;;;5.63;1.80;;;;;;;5.68;100.00;100372.09;5013649;28;20395;-52
2022/01/16 05:17:46;;;;;;;1.08;0.68;;;;;;;5.67;100.00;100381.59;5013860;28;20057;-52
2022/01/16 05:20:49;;;;;;;1.00;0.85;;;;;;;5.68;100.00;100372.09;5013527;28;20386;-52
2022/01/16 05:23:53;;;;;;;1.55;1.30;;;;;;;5.57;100.00;100377.06;5013645;28;20482;-52
2022/01/16 05:26:57;;;;;;;2.17;1.50;;;;;;;5.46;100.00;100371.00;5023378;28;20053;-52
2022/01/16 05:30:03;;;;;;;5.82;1.05;;;;;;;5.46;100.00;100359.97;5033117;28;20505;-52
2022/01/16 05:33:08;;;;;;;2.83;1.70;;;;;;;5.48;100.00;100352.03;5032786;28;20056;-52
2022/01/16 05:36:11;;;;;;;0.98;0.85;;;;;;;5.33;100.00;100346.03;5007481;28;20062;-52
2022/01/16 05:39:15;;;;;;;1.35;0.82;;;;;;;5.25;100.00;100358.44;4992968;28;20057;-52
2022/01/16 05:42:18;;;;;;;1.70;0.63;;;;;;;5.11;100.00;100355.22;4993371;28;20049;-52
2022/01/16 05:45:22;;;;;;;1.95;0.35;;;;;;;4.95;100.00;100364.22;5002379;28;20057;-52
2022/01/16 05:48:27;;;;;;;0.80;0.80;;;;;;;4.86;100.00;100354.94;5012284;28;20065;-52
2022/01/16 05:51:30;;;;;;;7.88;1.38;;;;;;;4.75;100.00;100365.41;5013099;28;20386;-52
2022/01/16 05:54:34;;;;;;;5.70;1.40;;;;;;;4.69;100.00;100372.59;5012810;28;20053;-52
2022/01/16 05:57:38;;;;;;;3.10;0.63;;;;;;;4.67;100.00;100377.78;5012780;28;20065;-52
2022/01/16 06:00:44;;;;;;;1.75;0.80;;;;;;;4.66;100.00;100362.44;5012931;28;20052;-52
2022/01/16 06:03:47;;;;;;;0.35;0.35;;;;;;;4.68;100.00;100384.88;5013096;28;20060;-52
2022/01/16 06:06:50;;;;;;;0.70;0.70;;;;;;;4.60;100.00;100393.25;5012677;28;20501;-52
2022/01/16 06:09:54;;;;;;;0.70;0.50;;;;;;;4.58;100.00;100384.63;5012582;28;20072;-53
2022/01/16 06:12:57;;;;;;;3.78;0.77;;;;;;;4.56;100.00;100406.34;5012592;28;20052;-52
2022/01/16 06:16:02;;;;;;;0.65;0.65;;;;;;;4.45;100.00;100397.47;5012822;28;20411;-52
2022/01/16 06:19:06;;;;;;;3.10;1.25;;;;;;;4.41;100.00;100398.72;5011984;28;20398;-52
2022/01/16 06:22:09;;;;;;;3.78;1.67;;;;;;;4.34;100.00;100405.16;5012849;28;20045;-52
2022/01/16 06:25:13;;;;;;;3.72;1.33;;;;;;;4.29;100.00;100421.38;5012608;28;20053;-52
2022/01/16 06:28:17;;;;;;;8.27;0.63;;;;;;;4.24;100.00;100416.34;4993337;28;20061;-52
2022/01/16 06:31:20;;;;;;;1.45;0.55;;;;;;;4.28;100.00;100428.88;4992110;28;20058;-52
2022/01/16 06:34:23;;;;;;;0.90;0.57;;;;;;;4.25;100.00;100429.72;4992873;28;20053;-52
2022/01/16 06:37:27;;;;;;;0.55;0.55;;;;;;;4.24;100.00;100430.13;4992475;28;20524;-52
2022/01/16 06:40:31;;;;;;;2.03;1.88;;;;;;;4.24;100.00;100430.13;4992534;28;20050;-52
2022/01/16 06:43:34;;;;;;;1.33;0.50;;;;;;;4.22;100.00;100433.28;4992521;28;20057;-52
2022/01/16 06:46:37;;;;;;;0.90;0.75;;;;;;;4.21;100.00;100442.78;5008526;28;20048;-52
2022/01/16 06:49:40;;;;;;;0.65;0.35;;;;;;;4.20;100.00;100445.97;5014259;28;20509;-52
2022/01/16 06:52:44;;;;;;;0.20;0.20;;;;;;;4.12;100.00;100445.28;5015784;28;20048;-54
2022/01/16 06:55:47;;;;;;;4.22;0.68;;;;;;;4.11;100.00;100449.25;5016023;28;20402;-54
2022/01/16 06:58:51;;;;;;;2.40;1.23;;;;;;;4.07;100.00;100448.50;5016337;28;20513;-52
2022/01/16 07:01:54;;;;;;;0.40;0.40;;;;;;;4.02;100.00;100448.97;5016184;28;20451;-52
2022/01/16 07:04:57;;;;;;;1.88;1.00;;;;;;;4.00;100.00;100456.88;5016007;28;20056;-52
2022/01/16 07:08:01;;;;;;;0.75;0.75;;;;;;;4.03;100.00;100464.31;5015509;28;20052;-52
2022/01/16 07:11:04;;;;;;;0.82;0.77;;;;;;;4.00;100.00;100476.19;5015620;28;20064;-52
2022/01/16 07:14:07;;;;;;;1.25;0.82;;;;;;;4.00;100.00;100478.94;5015767;28;20057;-53
2022/01/16 07:17:11;;;;;;;2.08;1.00;;;;;;;4.02;100.00;100484.81;5015291;28;20053;-53
2022/01/16 07:20:15;;;;;;;1.23;0.45;;;;;;;4.00;100.00;100487.19;5014580;28;20502;-53
2022/01/16 07:23:19;;;;;;;0.57;0.57;;;;;;;4.00;100.00;100498.22;5015443;28;20056;-53
2022/01/16 07:26:24;;;;;;;5.68;1.52;;;;;;;4.04;100.00;100498.94;5021274;28;20044;-53
2022/01/16 07:29:29;;;;;;;0.73;0.73;;;;;;;4.10;100.00;100513.03;5035471;28;20060;-53
2022/01/16 07:32:32;;;;;;;0.20;0.20;;;;;;;4.06;100.00;100513.09;5035297;28;20057;-53
2022/01/16 07:35:37;;;;;;;3.60;0.55;;;;;;;4.05;100.00;100511.50;5020260;28;20057;-53
2022/01/16 07:38:40;;;;;;;1.83;0.65;;;;;;;4.01;100.00;100513.53;4995424;28;20057;-53
2022/01/16 07:41:43;;;;;;;0.45;0.45;;;;;;;3.93;100.00;100522.31;4995694;28;20041;-53
2022/01/16 07:44:46;;;;;;;1.50;0.52;;;;;;;3.86;100.00;100536.97;4995640;28;20061;-53
2022/01/16 07:47:50;;;;;;;0.98;0.20;;;;;;;3.75;100.00;100514.28;4995665;28;20486;-53
2022/01/16 07:50:53;;;;;;;0.32;0.32;;;;;;;3.76;100.00;100532.38;4995449;28;20046;-53
2022/01/16 07:53:56;;;;;;;1.38;0.65;;;;;;;3.73;100.00;100522.97;4994636;28;20419;-53
2022/01/16 07:57:00;;;;;;;1.85;1.08;;;;;;;3.67;100.00;100535.66;4995113;28;20049;-53
2022/01/16 08:00:04;;;;;;;10.00;0.73;;;;;;;3.62;100.00;100538.84;4995269;28;20415;-53
2022/01/16 08:03:08;;;;;;;1.23;0.40;;;;;;;3.63;100.00;100536.88;4995419;28;20395;-53
2022/01/16 08:06:12;;;;;;;1.15;0.75;;;;;;;3.71;100.00;100530.09;4995275;28;20053;-53
2022/01/16 08:09:16;;;;;;;5.57;0.55;;;;;;;3.80;100.00;100533.13;4994907;28;20122;-52
2022/01/16 08:12:19;;;;;;;0.68;0.50;;;;;;;3.78;100.00;100539.06;4995224;28;20062;-52
2022/01/16 08:15:23;;;;;;;1.05;0.93;;;;;;;3.72;100.00;100548.97;4994969;28;20053;-52
2022/01/16 08:18:26;;;;;;;0.85;0.68;;;;;;;3.70;100.00;100556.06;4995354;28;20494;-55
2022/01/16 08:21:29;;;;;;;2.70;0.57;;;;;;;3.80;100.00;100560.66;5004493;28;20041;-52
2022/01/16 08:24:33;;;;;;;3.72;0.80;;;;;;;3.95;100.00;100570.31;5003935;28;20482;-54
2022/01/16 08:27:37;;;;;;;0.50;0.50;;;;;;;4.10;100.00;100563.44;5013113;28;20053;-52
2022/01/16 08:30:40;;;;;;;1.75;0.52;;;;;;;4.17;100.00;100552.31;5006784;28;20048;-52
2022/01/16 08:33:44;;;;;;;0.55;0.55;;;;;;;4.20;100.00;100568.00;5008261;28;20045;-52
2022/01/16 08:36:47;;;;;;;1.65;0.80;;;;;;;4.31;100.00;100568.63;5004339;28;20049;-52
2022/01/16 08:39:50;;;;;;;0.35;0.17;;;;;;;4.34;100.00;100578.84;5004050;28;20044;-52
2022/01/16 08:42:54;;;;;;;0.95;0.70;;;;;;;4.47;100.00;100579.84;5002602;28;20053;-52
2022/01/16 08:45:57;;;;;;;0.55;0.55;;;;;;;4.61;100.00;100587.13;5004170;28;20057;-52
2022/01/16 08:49:02;;;;;;;2.00;0.25;;;;;;;4.77;100.00;100591.97;5002629;28;20064;-52
2022/01/16 08:52:06;;;;;;;1.10;0.77;;;;;;;4.84;100.00;100611.19;5004167;28;20050;-52
2022/01/16 08:55:10;;;;;;;0.40;0.28;;;;;;;4.95;100.00;100614.56;5002386;28;20061;-52
2022/01/16 08:58:14;;;;;;;0.50;0.20;;;;;;;5.10;100.00;100613.13;5033753;28;20120;-52
2022/01/16 09:01:17;;;;;;;0.20;0.20;;;;;;;5.24;100.00;100618.44;5033202;28;20533;-52
2022/01/16 09:04:20;;;;;;;2.33;0.95;;;;;;;5.37;100.00;100606.34;5033782;28;20498;-52
2022/01/16 09:07:24;;;;;;;1.13;0.35;;;;;;;5.54;100.00;100621.06;4993706;28;20049;-52
2022/01/16 09:10:27;;;;;;;1.95;0.25;;;;;;;5.69;100.00;100608.53;4993912;28;20503;-52
2022/01/16 09:13:31;;;;;;;9.75;4.00;;;;;;;5.79;100.00;100603.97;4994459;28;20053;-52
2022/01/16 09:16:34;;;;;;;3.63;2.45;;;;;;;6.05;100.00;100611.38;5001466;28;20064;-52
2022/01/16 09:19:37;;;;;;;2.75;1.73;;;;;;;6.31;100.00;100638.09;5002924;28;20391;-52
2022/01/16 09:22:43;;;;;;;6.32;2.20;;;;;;;6.44;100.00;100641.75;5003241;28;20065;-52
2022/01/16 09:25:47;;;;;;;2.85;1.85;;;;;;;6.51;100.00;100649.13;5017997;28;20048;-52
2022/01/16 09:28:50;;;;;;;5.35;2.10;;;;;;;6.64;100.00;100664.66;5013387;28;20406;-52
2022/01/16 09:31:53;;;;;;;7.93;1.00;;;;;;;6.83;100.00;100682.41;5013064;28;20406;-52
2022/01/16 09:34:57;;;;;;;0.95;0.80;;;;;;;7.04;100.00;100681.91;5013623;28;20056;-52
2022/01/16 09:38:02;;;;;;;5.10;1.15;;;;;;;7.27;100.00;100684.53;5013190;28;20402;-52
2022/01/16 09:41:06;;;;;;;1.33;1.15;;;;;;;7.43;100.00;100701.16;5013333;28;20045;-52
2022/01/16 09:44:10;;;;;;;7.28;2.25;;;;;;;7.48;100.00;100703.41;5012913;28;20064;-52
2022/01/16 09:47:14;;;;;;;5.32;2.67;;;;;;;7.57;100.00;100709.13;5013211;28;20060;-52
2022/01/16 09:50:21;;;;;;;3.55;1.35;;;;;;;7.62;100.00;100705.81;5012793;28;20056;-51
2022/01/16 09:53:26;;;;;;;2.03;1.38;;;;;;;7.73;100.00;100716.66;5012207;28;20049;-52
2022/01/16 09:56:29;;;;;;;3.78;2.60;;;;;;;7.83;100.00;100714.81;5012509;28;20052;-52
2022/01/16 09:59:34;;;;;;;2.45;1.40;;;;;;;7.93;100.00;100719.28;5012839;28;20044;-52
2022/01/16 10:02:38;;;;;;;0.82;0.73;;;;;;;7.97;100.00;100725.53;5012288;28;20509;-52
2022/01/16 10:05:42;;;;;;;5.30;1.67;;;;;;;7.93;100.00;100741.47;5013017;28;20505;-52
2022/01/16 10:08:45;;;;;;;1.58;1.25;;;;;;;8.02;100.00;100749.94;5012408;28;20049;-52
2022/01/16 10:11:57;;;;;;;1.35;1.27;;;;;;;8.11;100.00;100750.13;5013080;28;20486;-51
2022/01/16 10:15:17;;;;;;;6.85;2.22;;;;;;;8.16;100.00;100760.69;5012665;28;20049;-52
2022/01/16 10:18:35;;;;;;;8.13;2.63;;;;;;;8.24;100.00;100764.81;5012917;28;20053;-52
2022/01/16 10:21:40;;;;;;;8.68;0.77;;;;;;;8.19;100.00;100777.22;5012406;28;20049;-51
2022/01/16 10:24:44;;;;;;;15.25;3.60;;;;;;;8.15;100.00;100773.00;5015893;28;20057;-51
2022/01/16 10:27:48;;;;;;;3.40;1.48;;;;;;;8.21;100.00;100782.34;5034243;28;20544;-52
2022/01/16 10:30:58;;;;;;;0.30;0.20;;;;;;;8.24;100.00;100775.94;5035957;28;20057;-52
2022/01/16 10:34:01;;;;;;;1.65;1.08;;;;;;;8.30;100.00;100769.44;4996931;28;20521;-52
2022/01/16 10:37:30;;;;;;;3.90;1.58;;;;;;;8.42;100.00;100786.59;5016479;28;20053;-51
2022/01/16 10:40:37;;;;;;;2.45;0.40;;;;;;;8.57;100.00;100791.31;5005668;28;20061;-52
2022/01/16 10:43:44;;;;;;;2.53;0.80;;;;;;;8.63;100.00;100792.31;4996736;28;20053;-51
2022/01/16 10:46:47;;;;;;;1.20;1.10;;;;;;;8.73;100.00;100805.13;5013890;28;20052;-51
2022/01/16 10:50:05;;;;;;;0.47;0.45;;;;;;;8.70;100.00;100803.22;5016471;28;20104;-51
2022/01/16 10:53:11;;;;;;;0.80;0.80;;;;;;;8.74;100.00;100811.47;5007002;28;20049;-52
2022/01/16 10:56:15;;;;;;;6.05;1.75;;;;;;;8.72;100.00;100806.34;5006313;28;20065;-51
2022/01/16 10:59:22;;;;;;;0.95;0.80;;;;;;;8.66;100.00;100799.00;5006450;28;20053;-51
2022/01/16 11:02:29;;;;;;;1.75;0.38;;;;;;;8.65;100.00;100803.78;5006569;28;20048;-51
2022/01/16 11:05:36;;;;;;;3.40;0.90;;;;;;;8.74;100.00;100812.25;5005957;28;20049;-51
2022/01/16 11:08:40;;;;;;;2.53;0.88;;;;;;;8.77;100.00;100794.69;5005046;28;20057;-52
2022/01/16 11:11:57;;;;;;;1.95;0.82;;;;;;;8.83;100.00;100792.94;5006668;28;20586;-53
2022/01/16 11:15:03;;;;;;;2.22;0.32;;;;;;;8.91;100.00;100799.06;5006344;28;20133;-52
2022/01/16 11:18:08;;;;;;;2.53;0.85;;;;;;;9.05;100.00;100810.53;4996238;28;20053;-52
2022/01/16 11:27:46;;;;;;;8.23;1.40;;;;;;;9.66;100.00;100815.00;5009347;28;20066;-52
2022/01/16 11:30:55;;;;;;;3.45;1.05;;;;;;;9.93;100.00;100806.97;4995984;28;20061;-52
2022/01/16 11:33:59;;;;;;;0.40;0.38;;;;;;;10.14;100.00;100811.84;4995327;28;20077;-52
2022/01/16 11:37:03;;;;;;;8.30;0.75;;;;;;;10.15;100.00;100813.44;5015001;28;20072;-52
2022/01/16 11:40:27;;;;;;;2.90;0.68;;;;;;;10.08;100.00;100815.63;5015289;28;20057;-53
2022/01/16 11:43:36;;;;;;;2.80;1.42;;;;;;;9.95;100.00;100821.22;5015272;28;20530;-53
2022/01/16 11:46:41;;;;;;;2.30;0.63;;;;;;;9.82;100.00;100821.25;5014917;28;20056;-52
2022/01/16 11:49:44;;;;;;;4.05;0.68;;;;;;;9.80;100.00;100836.81;5015264;28;20072;-52
2022/01/16 11:52:48;;;;;;;1.98;1.83;;;;;;;9.78;100.00;100830.94;5015233;28;20052;-52
2022/01/16 11:55:51;;;;;;;1.77;1.25;;;;;;;9.82;100.00;100837.16;5015278;28;20049;-52
2022/01/16 11:59:14;;;;;;;3.45;0.85;;;;;;;9.82;100.00;100831.59;5015552;28;20061;-52
2022/01/16 12:02:19;;;;;;;19.35;3.08;;;;;;;9.85;100.00;100836.28;5015248;28;20045;-52
2022/01/16 12:05:28;;;;;;;2.72;1.20;;;;;;;9.82;100.00;100851.06;5020737;28;20052;-52
2022/01/16 12:08:35;;;;;;;1.92;1.08;;;;;;;9.84;100.00;100859.75;5034463;28;20052;-52
2022/01/16 12:11:38;;;;;;;1.42;1.33;;;;;;;9.74;100.00;100852.53;5034347;28;20052;-52
2022/01/16 12:14:56;;;;;;;3.13;2.05;;;;;;;9.77;100.00;100871.09;5033694;28;20048;-53
2022/01/16 12:18:01;;;;;;;3.33;1.90;;;;;;;9.73;100.00;100862.06;4995035;28;20061;-52
2022/01/16 12:21:30;;;;;;;1.48;1.38;;;;;;;9.61;100.00;100871.22;4994874;28;20049;-53
2022/01/16 12:24:42;;;;;;;4.18;1.80;;;;;;;9.55;100.00;100875.78;4995250;28;20049;-52
2022/01/16 12:28:02;;;;;;;1.75;0.88;;;;;;;9.58;100.00;100886.00;5028847;28;20049;-52
2022/01/16 12:31:08;;;;;;;1.23;1.00;;;;;;;9.52;100.00;100896.09;5034161;28;20053;-52
2022/01/16 12:34:43;;;;;;;5.15;2.45;;;;;;;9.53;100.00;100889.34;5034517;28;20056;-52
2022/01/16 12:37:46;;;;;;;3.28;0.82;;;;;;;9.50;100.00;100881.88;4994613;28;20057;-52
2022/01/16 12:41:08;;;;;;;2.47;1.25;;;;;;;9.42;100.00;100895.19;4994541;28;20053;-52
2022/01/16 12:44:16;;;;;;;;;;;;;;;9.50;100.00;100898.56;4994927;28;20053;-52
2022/01/16 12:47:19;;;;;;;1.30;0.88;;;;;;;9.53;100.00;100894.91;5010860;28;19917;-52
2022/01/16 12:50:23;;;;;;;3.33;0.98;;;;;;;9.46;100.00;100900.66;5013152;28;20402;-52
2022/01/16 12:53:59;;;;;;;3.50;1.95;;;;;;;9.51;100.00;100897.31;5014376;28;20045;-52
2022/01/16 12:57:03;;;;;;;1.30;0.80;;;;;;;9.63;100.00;100896.56;5013855;28;20057;-52
2022/01/16 13:00:11;;;;;;;7.05;1.00;;;;;;;9.64;100.00;100895.31;5013845;28;20053;-52
2022/01/16 13:03:24;;;;;;;1.58;0.90;;;;;;;9.69;100.00;100886.44;5013653;28;20381;-52
2022/01/16 13:06:32;;;;;;;3.30;0.82;;;;;;;9.73;100.00;100887.91;5014289;28;20061;-52
2022/01/16 13:09:36;;;;;;;3.78;2.33;;;;;;;9.79;100.00;100885.31;5013796;28;20057;-52
2022/01/16 13:12:39;;;;;;;6.60;1.63;;;;;;;9.74;100.00;100895.03;5012768;28;20053;-52
2022/01/16 13:15:44;;;;;;;1.73;1.15;;;;;;;9.74;100.00;100900.59;5013556;28;20068;-52
2022/01/16 13:19:07;;;;;;;2.72;0.75;;;;;;;9.81;100.00;100899.59;5013951;28;20057;-53
2022/01/16 13:22:11;;;;;;;1.42;0.65;;;;;;;9.81;100.00;100894.03;5013044;28;20049;-52
2022/01/16 13:25:16;;;;;;;1.55;1.02;;;;;;;9.82;100.00;100890.78;5012497;28;20061;-52
2022/01/16 13:28:29;;;;;;;1.30;0.50;;;;;;;9.87;100.00;100908.94;4993959;28;20077;-52
2022/01/16 13:31:36;;;;;;;1.00;0.63;;;;;;;9.92;100.00;100913.94;4993682;28;20057;-52
2022/01/16 13:34:53;;;;;;;1.73;1.05;;;;;;;9.90;100.00;100913.59;4993565;28;20057;-52
2022/01/16 13:38:07;;;;;;;1.75;0.65;;;;;;;9.88;100.00;100916.03;5013400;28;20494;-52
2022/01/16 13:41:13;;;;;;;0.90;0.75;;;;;;;9.86;100.00;100912.94;5013307;28;20045;-52
2022/01/16 13:44:27;;;;;;;0.30;0.30;;;;;;;9.89;100.00;100907.28;5011820;28;20053;-52
2022/01/16 13:47:30;;;;;;;0.90;0.90;;;;;;;9.93;100.00;100916.28;5012921;28;20052;-52
2022/01/16 13:50:47;;;;;;;1.48;0.63;;;;;;;9.96;100.00;100905.47;5012968;28;20054;-52
2022/01/16 13:53:50;;;;;;;0.20;0.20;;;;;;;9.99;100.00;100919.28;5013080;28;20069;-52
2022/01/16 13:56:54;;;;;;;0.40;0.30;;;;;;;9.96;100.00;100922.97;5012674;28;20056;-52
2022/01/16 13:59:59;;;;;;;1.77;0.98;;;;;;;9.97;100.00;100941.19;5013051;28;20049;-53
2022/01/16 14:03:23;;;;;;;1.98;0.82;;;;;;;9.99;100.00;100947.09;5012618;28;20057;-53
2022/01/16 14:06:29;;;;;;;1.48;0.47;;;;;;;10.07;100.00;100937.28;5012653;28;20061;-53
2022/01/16 14:09:44;;;;;;;1.55;0.80;;;;;;;10.12;100.00;100936.00;5012599;28;20052;-53
2022/01/16 14:12:55;;;;;;;0.15;0.15;;;;;;;10.08;100.00;100924.16;5012651;28;20045;-53
2022/01/16 14:16:13;;;;;;;6.25;1.48;;;;;;;9.94;100.00;100925.38;5012628;28;20501;-53
2022/01/16 14:19:20;;;;;;;1.10;0.47;;;;;;;9.78;100.00;100942.19;5012689;28;20056;-53
2022/01/16 14:22:27;;;;;;;0.10;0.10;;;;;;;9.68;100.00;100946.09;5012205;28;20049;-53
2022/01/16 14:25:30;;;;;;;0.22;0.22;;;;;;;9.47;100.00;100957.81;5012419;28;20077;-53
2022/01/16 14:28:37;;;;;;;0.17;0.17;;;;;;;9.29;100.00;100963.13;4992479;28;20384;-53
2022/01/16 14:31:41;;;;;;;0.20;0.20;;;;;;;9.27;100.00;100971.13;4992738;28;20047;-53
2022/01/16 14:34:47;;;;;;;2.20;0.50;;;;;;;9.38;100.00;100968.78;4993745;28;20430;-53
2022/01/16 14:37:51;;;;;;;0.20;0.20;;;;;;;9.31;100.00;100957.91;5012886;28;20049;-53
2022/01/16 14:40:56;;;;;;;0.10;0.10;;;;;;;9.25;100.00;100973.56;5012864;28;20057;-53
2022/01/16 14:44:02;;;;;;;1.30;0.75;;;;;;;9.16;100.00;100976.94;5012459;28;20048;-53
2022/01/16 14:47:09;;;;;;;0.10;0.10;;;;;;;9.08;100.00;100986.69;5011066;28;20057;-53
2022/01/16 14:50:14;;;;;;;2.25;1.02;;;;;;;8.94;100.00;100992.66;5012320;28;20048;-53
2022/01/16 14:53:19;;;;;;;0.22;0.15;;;;;;;8.83;100.00;101006.03;5012220;28;20053;-52
2022/01/16 14:56:23;;;;;;;4.95;1.23;;;;;;;8.80;100.00;101004.91;5025974;28;20410;-52
2022/01/16 14:59:30;;;;;;;0.52;0.40;;;;;;;8.90;100.00;101012.16;5032041;28;20056;-53
2022/01/16 15:02:34;;;;;;;6.45;1.25;;;;;;;9.05;100.00;101009.81;5031709;28;20497;-53
2022/01/16 15:05:38;;;;;;;2.00;0.85;;;;;;;9.10;100.00;101023.94;5016290;28;20065;-53
2022/01/16 15:08:47;;;;;;;3.67;0.57;;;;;;;9.15;100.00;101028.19;4992316;28;20053;-53
2022/01/16 15:11:51;;;;;;;0.38;0.38;;;;;;;9.24;100.00;101038.69;4996292;28;20054;-53
2022/01/16 15:14:54;;;;;;;0.10;0.10;;;;;;;9.07;100.00;101038.72;4994804;28;20061;-53